createdAt,value
2017-11-28T00:01:06.814Z,93.49
2017-11-28T00:03:32.938Z,93.57
2017-11-28T00:05:59.230Z,93.50
2017-11-28T00:08:25.332Z,93.60
2017-11-28T00:10:51.421Z,93.76
2017-11-28T00:13:17.537Z,93.54
2017-11-28T00:15:43.708Z,93.55
2017-11-28T00:18:09.854Z,93.67
2017-11-28T00:20:35.901Z,93.65
2017-11-28T00:23:02.040Z,93.71
2017-11-28T00:25:28.191Z,93.81
2017-11-28T00:27:54.355Z,93.53
2017-11-28T00:30:20.452Z,93.64
2017-11-28T00:32:46.619Z,93.75
2017-11-28T00:35:12.790Z,93.57
2017-11-28T00:37:38.964Z,93.67
2017-11-28T00:40:05.061Z,93.71
2017-11-28T00:42:31.189Z,94.04
2017-11-28T00:44:57.261Z,93.90
2017-11-28T00:47:23.333Z,93.88
2017-11-28T00:49:49.454Z,93.89
2017-11-28T00:52:15.569Z,93.75
2017-11-28T00:54:41.666Z,94.08
2017-11-28T00:57:07.838Z,94.06
2017-11-28T00:59:34.042Z,94.14
2017-11-28T01:02:00.149Z,94.35
2017-11-28T01:04:26.261Z,94.03
2017-11-28T01:06:52.358Z,94.07
2017-11-28T01:09:18.473Z,94.01
2017-11-28T01:11:44.673Z,94.09
2017-11-28T01:14:10.778Z,93.88
2017-11-28T01:16:36.878Z,94.04
2017-11-28T01:19:02.982Z,94.11
2017-11-28T01:21:29.066Z,93.94
2017-11-28T01:23:55.163Z,93.93
2017-11-28T01:26:21.337Z,93.73
2017-11-28T01:28:47.464Z,93.91
2017-11-28T01:31:13.537Z,94.14
2017-11-28T01:33:39.631Z,94.00
2017-11-28T01:36:05.805Z,94.08
2017-11-28T01:38:31.912Z,94.07
2017-11-28T01:40:57.989Z,94.23
2017-11-28T01:43:24.172Z,93.94
2017-11-28T01:45:50.225Z,94.11
2017-11-28T01:48:16.337Z,94.15
2017-11-28T01:50:42.507Z,94.16
2017-11-28T01:53:08.626Z,94.51
2017-11-28T01:55:34.723Z,94.52
2017-11-28T01:58:00.849Z,94.41
2017-11-28T02:00:26.913Z,94.52
2017-11-28T02:02:53.002Z,94.45
2017-11-28T02:05:19.109Z,94.42
2017-11-28T02:07:45.236Z,94.33
2017-11-28T02:10:11.358Z,94.41
2017-11-28T02:12:37.422Z,94.47
2017-11-28T02:15:03.488Z,94.54
2017-11-28T02:17:29.592Z,94.59
2017-11-28T02:19:55.675Z,94.54
2017-11-28T02:22:21.781Z,94.60
2017-11-28T02:24:47.881Z,94.46
2017-11-28T02:27:13.950Z,94.47
2017-11-28T02:29:40.066Z,94.49
2017-11-28T02:32:06.201Z,94.41
2017-11-28T02:34:32.308Z,94.62
2017-11-28T02:36:58.373Z,94.66
2017-11-28T02:39:24.471Z,94.56
2017-11-28T02:41:50.600Z,94.55
2017-11-28T02:44:16.683Z,94.50
2017-11-28T02:46:42.765Z,94.51
2017-11-28T02:52:11.097Z,94.59
2017-11-28T02:54:48.906Z,94.54
2017-11-28T02:57:14.933Z,94.27
2017-11-28T02:59:41.770Z,94.31
2017-11-28T03:02:07.852Z,94.37
2017-11-28T03:04:33.936Z,94.37
2017-11-28T03:07:00.030Z,94.32
2017-11-28T03:09:41.022Z,94.35
2017-11-28T03:12:08.842Z,94.35
2017-11-28T03:14:41.711Z,94.32
2017-11-28T03:17:07.780Z,94.15
2017-11-28T03:19:37.591Z,94.21
2017-11-28T03:22:08.546Z,94.25
2017-11-28T03:24:44.568Z,93.95
2017-11-28T03:27:10.684Z,94.09
2017-11-28T03:29:46.776Z,94.15
2017-11-28T03:32:12.910Z,94.05
2017-11-28T03:34:39.000Z,94.23
2017-11-28T03:37:05.154Z,94.09
2017-11-28T03:39:31.349Z,93.85
2017-11-28T03:41:57.474Z,93.95
2017-11-28T03:44:36.269Z,94.06
2017-11-28T03:47:02.378Z,94.09
2017-11-28T03:49:28.518Z,94.36
2017-11-28T03:51:54.613Z,94.13
2017-11-28T03:54:20.642Z,93.99
2017-11-28T03:56:46.761Z,93.92
2017-11-28T03:59:13.010Z,93.97
2017-11-28T04:01:39.106Z,94.34
2017-11-28T04:04:05.184Z,93.92
2017-11-28T04:06:31.323Z,93.94
2017-11-28T04:08:57.422Z,93.94
2017-11-28T04:11:23.581Z,94.02
2017-11-28T04:13:49.728Z,94.21
2017-11-28T04:16:15.851Z,94.14
2017-11-28T04:18:41.957Z,94.06
2017-11-28T04:21:08.034Z,94.17
2017-11-28T04:23:34.109Z,94.06
2017-11-28T04:26:00.193Z,94.16
2017-11-28T04:28:26.321Z,94.46
2017-11-28T04:30:52.437Z,94.16
2017-11-28T04:33:18.529Z,94.28
2017-11-28T04:35:44.681Z,94.31
2017-11-28T04:38:10.779Z,94.18
2017-11-28T04:40:36.829Z,94.35
2017-11-28T04:43:03.010Z,94.48
2017-11-28T04:45:29.081Z,94.44
2017-11-28T04:47:55.154Z,94.12
2017-11-28T04:50:21.322Z,94.36
2017-11-28T04:52:47.473Z,94.37
2017-11-28T04:55:13.513Z,94.10
2017-11-28T04:57:39.623Z,94.31
2017-11-28T05:00:05.745Z,94.49
2017-11-28T05:02:31.845Z,94.33
2017-11-28T05:04:57.982Z,94.36
2017-11-28T05:07:24.173Z,94.59
2017-11-28T05:09:50.307Z,94.29
2017-11-28T05:12:16.518Z,94.55
2017-11-28T05:14:42.670Z,94.86
2017-11-28T05:17:08.793Z,94.76
2017-11-28T05:19:34.936Z,94.79
2017-11-28T05:22:01.047Z,94.60
2017-11-28T05:24:27.206Z,94.39
2017-11-28T05:26:53.349Z,94.30
2017-11-28T05:29:19.452Z,94.04
2017-11-28T05:31:45.578Z,94.34
2017-11-28T05:34:11.649Z,94.30
2017-11-28T05:36:37.781Z,94.16
2017-11-28T05:39:03.854Z,94.37
2017-11-28T05:41:30.041Z,94.50
2017-11-28T05:43:56.073Z,94.27
2017-11-28T05:46:22.166Z,94.16
2017-11-28T05:48:48.265Z,94.19
2017-11-28T05:51:14.343Z,94.39
2017-11-28T05:53:41.345Z,94.19
2017-11-28T05:56:07.458Z,94.00
2017-11-28T05:58:33.587Z,94.36
2017-11-28T06:00:59.641Z,94.63
2017-11-28T06:03:25.750Z,94.72
2017-11-28T06:05:51.837Z,94.62
2017-11-28T06:08:24.900Z,94.66
2017-11-28T06:10:50.997Z,94.49
2017-11-28T06:13:17.045Z,94.57
2017-11-28T06:15:43.137Z,94.73
2017-11-28T06:18:09.298Z,94.84
2017-11-28T06:20:35.389Z,94.87
2017-11-28T06:23:01.449Z,94.86
2017-11-28T06:25:27.534Z,94.70
2017-11-28T06:27:53.653Z,94.97
2017-11-28T06:30:19.746Z,94.99
2017-11-28T06:32:45.877Z,94.92
2017-11-28T06:35:11.986Z,94.96
2017-11-28T06:37:38.062Z,94.82
2017-11-28T06:40:04.113Z,95.22
2017-11-28T06:42:30.209Z,94.88
2017-11-28T06:44:56.353Z,94.87
2017-11-28T06:47:22.509Z,95.05
2017-11-28T06:49:48.590Z,95.02
2017-11-28T06:52:14.676Z,95.11
2017-11-28T06:54:40.784Z,95.33
2017-11-28T06:57:06.864Z,95.30
2017-11-28T06:59:32.930Z,95.24
2017-11-28T07:01:59.082Z,95.56
2017-11-28T07:04:25.231Z,95.27
2017-11-28T07:06:51.383Z,95.10
2017-11-28T07:09:17.476Z,95.10
2017-11-28T07:11:43.551Z,95.18
2017-11-28T07:14:09.655Z,95.22
2017-11-28T07:16:35.773Z,95.29
2017-11-28T07:19:01.874Z,95.11
2017-11-28T07:21:27.965Z,94.85
2017-11-28T07:23:54.033Z,94.76
2017-11-28T07:26:20.116Z,94.76
2017-11-28T07:28:46.280Z,94.70
2017-11-28T07:31:12.410Z,94.68
2017-11-28T07:33:38.528Z,94.62
2017-11-28T07:36:04.655Z,94.32
2017-11-28T07:38:30.857Z,94.61
2017-11-28T07:40:57.297Z,94.40
2017-11-28T07:43:23.501Z,94.39
2017-11-28T07:45:49.565Z,94.55
2017-11-28T07:48:15.650Z,94.64
2017-11-28T07:50:41.714Z,94.66
2017-11-28T07:53:07.793Z,94.61
2017-11-28T07:55:33.892Z,94.48
2017-11-28T07:57:59.969Z,94.56
2017-11-28T08:00:26.038Z,94.36
2017-11-28T08:02:52.098Z,94.61
2017-11-28T08:05:18.178Z,94.48
2017-11-28T08:07:44.255Z,94.65
2017-11-28T08:10:10.370Z,94.47
2017-11-28T08:12:36.450Z,94.31
2017-11-28T08:15:02.610Z,94.20
2017-11-28T08:17:28.705Z,94.42
2017-11-28T08:19:54.813Z,94.39
2017-11-28T08:22:20.949Z,94.42
2017-11-28T08:24:47.071Z,94.26
2017-11-28T08:27:13.202Z,94.39
2017-11-28T08:29:39.361Z,94.61
2017-11-28T08:32:05.526Z,94.57
2017-11-28T08:34:31.645Z,94.86
2017-11-28T08:36:57.758Z,94.66
2017-11-28T08:39:23.897Z,94.63
2017-11-28T08:41:49.993Z,94.81
2017-11-28T08:44:16.050Z,94.67
2017-11-28T08:46:42.181Z,94.81
2017-11-28T08:49:08.322Z,95.01
2017-11-28T08:51:34.482Z,94.88
2017-11-28T08:54:00.548Z,94.84
2017-11-28T08:56:26.663Z,94.72
2017-11-28T08:58:52.826Z,94.63
2017-11-28T09:01:19.025Z,94.19
2017-11-28T09:03:45.209Z,94.50
2017-11-28T09:06:11.302Z,94.24
2017-11-28T09:08:37.393Z,94.23
2017-11-28T09:11:03.506Z,94.04
2017-11-28T09:13:29.603Z,94.20
2017-11-28T09:15:55.702Z,93.89
2017-11-28T09:18:21.797Z,94.19
2017-11-28T09:20:47.898Z,93.85
2017-11-28T09:23:14.057Z,93.74
2017-11-28T09:25:40.115Z,94.21
2017-11-28T09:28:06.256Z,94.11
2017-11-28T09:30:32.395Z,94.13
2017-11-28T09:32:58.463Z,94.03
2017-11-28T09:35:24.599Z,94.29
2017-11-28T09:37:50.713Z,94.17
2017-11-28T09:40:16.776Z,94.17
2017-11-28T09:42:42.845Z,94.00
2017-11-28T09:45:08.950Z,94.31
2017-11-28T09:47:35.083Z,94.02
2017-11-28T09:50:01.202Z,94.05
2017-11-28T09:52:27.318Z,93.95
2017-11-28T09:54:53.415Z,94.03
2017-11-28T09:57:19.499Z,93.96
2017-11-28T09:59:45.706Z,93.61
2017-11-28T10:02:11.790Z,93.73
2017-11-28T10:04:37.922Z,93.87
2017-11-28T10:07:04.059Z,93.74
2017-11-28T10:09:30.073Z,93.89
2017-11-28T10:11:56.221Z,93.86
2017-11-28T10:14:22.296Z,94.11
2017-11-28T10:16:48.390Z,93.21
2017-11-28T10:19:14.480Z,93.72
2017-11-28T10:21:40.533Z,93.93
2017-11-28T10:24:07.058Z,93.31
2017-11-28T10:26:33.219Z,93.13
2017-11-28T10:28:59.373Z,92.82
2017-11-28T10:31:25.490Z,92.62
2017-11-28T10:33:51.554Z,92.28
2017-11-28T10:36:17.714Z,92.93
2017-11-28T10:38:43.809Z,92.68
2017-11-28T10:41:09.918Z,92.21
2017-11-28T10:43:36.022Z,92.40
2017-11-28T10:46:02.133Z,91.87
2017-11-28T10:48:28.231Z,92.37
2017-11-28T10:50:54.308Z,92.32
2017-11-28T10:53:20.442Z,92.53
2017-11-28T10:55:46.544Z,92.36
2017-11-28T10:58:12.610Z,92.05
2017-11-28T11:00:38.730Z,92.26
2017-11-28T11:03:04.830Z,92.66
2017-11-28T11:05:31.006Z,92.54
2017-11-28T11:07:57.171Z,92.53
2017-11-28T11:10:23.333Z,92.32
2017-11-28T11:12:49.460Z,92.58
2017-11-28T11:15:15.541Z,92.59
2017-11-28T11:17:41.654Z,92.00
2017-11-28T11:20:07.767Z,92.08
2017-11-28T11:22:33.863Z,92.35
2017-11-28T11:24:59.990Z,92.49
2017-11-28T11:27:26.084Z,91.82
2017-11-28T11:29:52.189Z,92.35
2017-11-28T11:32:18.218Z,92.77
2017-11-28T11:34:44.310Z,92.40
2017-11-28T11:37:10.422Z,92.56
2017-11-28T11:39:36.513Z,92.58
2017-11-28T11:42:02.613Z,92.49
2017-11-28T11:44:28.729Z,92.28
2017-11-28T11:46:54.892Z,92.08
2017-11-28T11:49:20.974Z,92.69
2017-11-28T11:51:47.212Z,93.04
2017-11-28T11:54:13.345Z,92.55
2017-11-28T11:56:39.422Z,92.43
2017-11-28T11:59:05.591Z,92.33
2017-11-28T12:01:31.705Z,92.60
2017-11-28T12:03:57.810Z,93.23
2017-11-28T12:06:23.885Z,92.70
2017-11-28T12:08:49.975Z,92.15
2017-11-28T12:11:16.123Z,92.70
2017-11-28T12:13:42.297Z,92.40
2017-11-28T12:16:08.370Z,92.83
2017-11-28T12:18:34.510Z,92.59
2017-11-28T12:21:00.665Z,92.83
2017-11-28T12:23:26.812Z,93.14
2017-11-28T12:25:52.967Z,93.26
2017-11-28T12:28:19.042Z,92.62
2017-11-28T12:30:45.181Z,92.73
2017-11-28T12:33:11.398Z,92.79
2017-11-28T12:35:37.492Z,92.38
2017-11-28T12:38:03.641Z,92.56
2017-11-28T12:40:29.762Z,92.87
2017-11-28T12:42:55.865Z,93.02
2017-11-28T12:45:21.926Z,92.94
2017-11-28T12:47:48.031Z,92.83
2017-11-28T12:50:14.201Z,92.54
2017-11-28T12:52:40.311Z,93.14
2017-11-28T12:55:06.398Z,93.19
2017-11-28T12:57:32.498Z,93.55
2017-11-28T12:59:58.579Z,93.65
2017-11-28T13:02:24.701Z,93.89
2017-11-28T13:04:50.767Z,93.93
2017-11-28T13:07:16.897Z,93.85
2017-11-28T13:09:43.053Z,93.89
2017-11-28T13:12:09.181Z,94.06
2017-11-28T13:14:35.237Z,93.98
2017-11-28T13:17:01.296Z,94.18
2017-11-28T13:19:27.427Z,94.22
2017-11-28T13:21:53.534Z,94.05
2017-11-28T13:24:19.731Z,94.11
2017-11-28T13:26:45.786Z,93.73
2017-11-28T13:29:11.890Z,93.47
2017-11-28T13:31:37.958Z,93.85
2017-11-28T13:34:04.038Z,93.08
2017-11-28T13:36:30.289Z,93.12
2017-11-28T13:38:56.442Z,93.54
2017-11-28T13:41:22.580Z,92.72
2017-11-28T13:43:48.693Z,92.13
2017-11-28T13:46:14.832Z,92.62
2017-11-28T13:48:40.955Z,92.67
2017-11-28T13:51:07.091Z,92.73
2017-11-28T13:53:33.212Z,92.66
2017-11-28T13:55:59.301Z,93.05
2017-11-28T13:58:25.435Z,93.07
2017-11-28T14:00:51.573Z,92.63
2017-11-28T14:03:17.735Z,92.26
2017-11-28T14:05:43.867Z,92.37
2017-11-28T14:08:09.981Z,91.93
2017-11-28T14:10:36.100Z,92.00
2017-11-28T14:13:02.268Z,91.81
2017-11-28T14:15:28.426Z,92.26
2017-11-28T14:17:54.531Z,91.55
2017-11-28T14:23:41.425Z,91.40
2017-11-28T14:29:33.538Z,91.24
2017-11-28T14:35:08.722Z,91.50
2017-11-28T14:37:34.991Z,91.38
2017-11-28T14:40:01.109Z,91.89
2017-11-28T14:42:32.214Z,91.45
2017-11-28T14:45:04.394Z,91.77
2017-11-28T14:47:30.690Z,91.64
2017-11-28T14:49:56.939Z,91.66
2017-11-28T14:52:23.109Z,91.55
2017-11-28T14:54:55.253Z,91.89
2017-11-28T14:57:26.480Z,91.86
2017-11-28T14:59:58.480Z,92.08
2017-11-28T15:02:30.620Z,91.99
2017-11-28T15:05:02.895Z,91.69
2017-11-28T15:10:39.344Z,91.45
2017-11-28T15:13:11.617Z,91.34
2017-11-28T15:15:43.913Z,91.71
2017-11-28T15:18:16.025Z,91.59
2017-11-28T15:20:47.316Z,91.50
2017-11-28T15:26:26.665Z,91.63
2017-11-28T15:28:52.901Z,92.26
2017-11-28T15:31:19.029Z,91.94
2017-11-28T15:33:45.145Z,91.90
2017-11-28T15:36:11.266Z,92.06
2017-11-28T15:38:37.387Z,92.01
2017-11-28T15:41:03.515Z,91.70
2017-11-28T15:43:29.609Z,91.59
2017-11-28T15:45:55.706Z,91.86
2017-11-28T15:48:21.829Z,91.62
2017-11-28T15:50:47.949Z,91.48
2017-11-28T15:53:14.256Z,91.84
2017-11-28T15:55:40.354Z,91.72
2017-11-28T15:58:06.565Z,91.65
2017-11-28T16:00:32.650Z,91.62
2017-11-28T16:02:59.810Z,91.32
2017-11-28T16:05:25.913Z,91.60
2017-11-28T16:07:51.969Z,91.97
2017-11-28T16:10:18.084Z,91.21
2017-11-28T16:12:44.172Z,90.81
2017-11-28T16:15:10.265Z,91.19
2017-11-28T16:17:36.395Z,91.35
2017-11-28T16:20:02.606Z,91.33
2017-11-28T16:22:28.726Z,91.24
2017-11-28T16:24:54.819Z,91.60
2017-11-28T16:27:20.938Z,91.71
2017-11-28T16:29:47.108Z,91.75
2017-11-28T16:32:13.181Z,91.96
2017-11-28T16:34:39.322Z,92.02
2017-11-28T16:37:05.408Z,92.10
2017-11-28T16:39:31.483Z,92.55
2017-11-28T16:41:57.594Z,93.52
2017-11-28T16:44:23.754Z,93.82
2017-11-28T16:46:49.931Z,95.24
2017-11-28T16:49:16.036Z,95.83
2017-11-28T16:51:42.182Z,95.75
2017-11-28T16:54:08.439Z,95.34
2017-11-28T16:56:34.529Z,94.21
2017-11-28T16:59:00.670Z,93.38
2017-11-28T17:01:26.794Z,92.96
2017-11-28T17:03:52.941Z,93.16
2017-11-28T17:06:19.113Z,94.98
2017-11-28T17:08:45.343Z,96.38
2017-11-28T17:11:11.528Z,96.54
2017-11-28T17:13:37.721Z,96.38
2017-11-28T17:16:03.847Z,96.54
2017-11-28T17:18:30.007Z,96.68
2017-11-28T17:20:56.164Z,96.46
2017-11-28T17:23:22.309Z,96.50
2017-11-28T17:25:48.581Z,96.13
2017-11-28T17:28:14.734Z,95.31
2017-11-28T17:30:40.895Z,94.40
2017-11-28T17:33:07.065Z,94.24
2017-11-28T17:35:33.203Z,94.38
2017-11-28T17:37:59.444Z,94.62
2017-11-28T17:40:25.599Z,93.93
2017-11-28T17:42:51.719Z,94.05
2017-11-28T17:45:17.846Z,93.42
2017-11-28T17:47:44.128Z,93.20
2017-11-28T17:50:10.323Z,93.04
2017-11-28T17:52:36.582Z,92.61
2017-11-28T17:55:02.899Z,92.51
2017-11-28T17:57:29.054Z,92.62
2017-11-28T17:59:55.118Z,92.99
2017-11-28T18:02:21.350Z,92.98
2017-11-28T18:04:47.486Z,93.50
2017-11-28T18:07:13.630Z,93.95
2017-11-28T18:09:39.785Z,94.72
2017-11-28T18:12:05.886Z,95.44
2017-11-28T18:14:31.907Z,95.72
2017-11-28T18:16:58.091Z,95.97
2017-11-28T18:19:24.140Z,96.22
2017-11-28T18:21:50.252Z,96.59
2017-11-28T18:24:16.347Z,96.80
2017-11-28T18:26:42.482Z,96.96
2017-11-28T18:29:08.564Z,96.86
2017-11-28T18:31:34.782Z,96.90
2017-11-28T18:34:00.912Z,96.81
2017-11-28T18:36:27.111Z,96.81
2017-11-28T18:38:53.304Z,96.67
2017-11-28T18:41:19.445Z,96.65
2017-11-28T18:43:45.563Z,96.61
2017-11-28T18:46:11.666Z,96.65
2017-11-28T18:48:37.761Z,96.65
2017-11-28T18:51:03.904Z,96.77
2017-11-28T18:53:30.010Z,96.92
2017-11-28T18:55:56.099Z,97.16
2017-11-28T18:58:22.218Z,97.29
2017-11-28T19:00:48.314Z,97.15
2017-11-28T19:03:14.477Z,97.35
2017-11-28T19:05:40.654Z,97.35
2017-11-28T19:08:06.783Z,97.25
2017-11-28T19:10:32.857Z,96.84
2017-11-28T19:12:58.972Z,96.43
2017-11-28T19:15:25.118Z,94.94
2017-11-28T19:17:51.207Z,94.55
2017-11-28T19:20:17.374Z,93.51
2017-11-28T19:22:43.526Z,93.08
2017-11-28T19:25:09.756Z,93.95
2017-11-28T19:27:35.921Z,94.72
2017-11-28T19:30:12.022Z,95.25
2017-11-28T19:32:38.194Z,95.79
2017-11-28T19:35:04.601Z,96.40
2017-11-28T19:37:31.367Z,96.47
2017-11-28T19:39:57.674Z,96.44
2017-11-28T19:42:23.946Z,96.40
2017-11-28T19:44:50.269Z,96.33
2017-11-28T19:47:16.610Z,96.40
2017-11-28T19:49:43.009Z,96.36
2017-11-28T19:52:09.266Z,96.31
2017-11-28T19:54:35.623Z,96.44
2017-11-28T19:57:01.920Z,96.48
2017-11-28T19:59:28.208Z,96.49
2017-11-28T20:01:54.534Z,96.47
2017-11-28T20:04:21.751Z,96.52
2017-11-28T20:06:47.999Z,96.45
2017-11-28T20:09:14.373Z,96.39
2017-11-28T20:11:40.549Z,96.49
2017-11-28T20:14:06.673Z,96.54
2017-11-28T20:16:32.859Z,96.60
2017-11-28T20:18:59.255Z,96.49
2017-11-28T20:21:25.543Z,96.39
2017-11-28T20:23:51.843Z,96.34
2017-11-28T20:26:18.146Z,96.36
2017-11-28T20:28:44.425Z,96.44
2017-11-28T20:31:10.836Z,96.39
2017-11-28T20:33:37.053Z,96.22
2017-11-28T20:36:03.551Z,96.12
2017-11-28T20:38:29.735Z,95.97
2017-11-28T20:40:56.058Z,95.91
2017-11-28T20:43:22.253Z,96.14
2017-11-28T20:45:48.443Z,95.97
2017-11-28T20:48:14.861Z,95.66
2017-11-28T20:50:41.005Z,95.16
2017-11-28T20:53:07.229Z,95.48
2017-11-28T20:55:33.607Z,95.76
2017-11-28T20:57:59.827Z,96.14
2017-11-28T21:00:26.026Z,96.33
2017-11-28T21:02:52.160Z,96.34
2017-11-28T21:05:18.320Z,96.63
2017-11-28T21:07:44.539Z,96.62
2017-11-28T21:10:10.640Z,96.80
2017-11-28T21:12:36.732Z,96.88
2017-11-28T21:15:02.870Z,96.88
2017-11-28T21:17:28.959Z,97.00
2017-11-28T21:19:55.029Z,97.05
2017-11-28T21:22:21.198Z,97.04
2017-11-28T21:24:47.250Z,97.07
2017-11-28T21:27:13.366Z,97.14
2017-11-28T21:29:39.501Z,97.27
2017-11-28T21:32:05.622Z,97.26
2017-11-28T21:34:31.709Z,97.39
2017-11-28T21:36:57.816Z,97.30
2017-11-28T21:39:23.866Z,97.18
2017-11-28T21:41:50.108Z,96.85
2017-11-28T21:44:16.235Z,96.28
2017-11-28T21:46:42.330Z,95.75
2017-11-28T21:49:08.445Z,95.74
2017-11-28T21:51:34.538Z,95.68
2017-11-28T21:54:00.646Z,94.86
2017-11-28T21:56:26.802Z,94.96
2017-11-28T21:58:52.950Z,95.30
2017-11-28T22:01:19.150Z,94.91
2017-11-28T22:03:45.253Z,94.77
2017-11-28T22:06:11.406Z,95.04
2017-11-28T22:08:37.551Z,94.98
2017-11-28T22:11:03.686Z,94.71
2017-11-28T22:13:29.782Z,94.61
2017-11-28T22:15:55.882Z,94.56
2017-11-28T22:18:21.982Z,94.89
2017-11-28T22:20:48.065Z,94.58
2017-11-28T22:23:14.136Z,94.44
2017-11-28T22:25:40.224Z,94.62
2017-11-28T22:28:06.310Z,94.06
2017-11-28T22:30:32.418Z,93.72
2017-11-28T22:32:58.526Z,93.81
2017-11-28T22:35:24.664Z,93.61
2017-11-28T22:37:51.177Z,93.89
2017-11-28T22:40:17.269Z,94.13
2017-11-28T22:42:43.421Z,94.10
2017-11-28T22:45:09.469Z,94.13
2017-11-28T22:47:35.559Z,94.30
2017-11-28T22:50:01.634Z,94.33
2017-11-28T22:52:27.787Z,94.19
2017-11-28T22:54:53.914Z,93.93
2017-11-28T22:57:19.962Z,93.68
2017-11-28T22:59:46.088Z,93.56
2017-11-28T23:02:12.226Z,93.65
2017-11-28T23:04:38.298Z,93.61
2017-11-28T23:07:04.765Z,93.54
2017-11-28T23:09:30.873Z,93.47
2017-11-28T23:11:56.942Z,93.66
2017-11-28T23:14:33.986Z,93.75
2017-11-28T23:17:00.066Z,93.69
2017-11-28T23:19:26.137Z,93.13
2017-11-28T23:21:52.266Z,93.42
2017-11-28T23:24:18.330Z,93.69
2017-11-28T23:26:44.405Z,93.15
2017-11-28T23:29:10.505Z,93.08
2017-11-28T23:31:36.620Z,93.90
2017-11-28T23:34:02.713Z,93.73
2017-11-28T23:36:28.801Z,93.20
2017-11-28T23:38:54.899Z,93.07
2017-11-28T23:41:20.978Z,93.05
2017-11-28T23:43:47.099Z,93.03
2017-11-28T23:46:13.240Z,92.99
2017-11-28T23:48:39.445Z,92.66
2017-11-28T23:51:05.523Z,92.77
2017-11-28T23:53:31.591Z,92.80
2017-11-28T23:55:57.656Z,92.84
2017-11-28T23:58:23.661Z,93.35
